createdAt,value
2022-11-01T00:00:44.246Z,1008.90
2022-11-01T00:01:34.285Z,1008.89
2022-11-01T00:02:42.865Z,1008.88
2022-11-01T00:03:34.152Z,1008.78
2022-11-01T00:04:34.176Z,1008.79
2022-11-01T00:05:34.132Z,1008.84
2022-11-01T00:06:34.105Z,1008.84
2022-11-01T00:07:34.123Z,1008.85
2022-11-01T00:08:34.081Z,1008.82
2022-11-01T00:09:34.065Z,1008.82
2022-11-01T00:10:34.178Z,1008.91
2022-11-01T00:11:34.063Z,1008.91
2022-11-01T00:12:34.033Z,1008.90
2022-11-01T00:13:34.041Z,1008.91
2022-11-01T00:16:01.122Z,1008.87
2022-11-01T00:16:11.855Z,1008.90
2022-11-01T00:17:13.372Z,1008.91
2022-11-01T00:18:14.347Z,1008.94
2022-11-01T00:19:05.757Z,1009.00
2022-11-01T00:20:05.799Z,1008.98
2022-11-01T00:21:05.764Z,1008.99
2022-11-01T00:22:05.736Z,1009.04
2022-11-01T00:23:05.769Z,1008.98
2022-11-01T00:24:05.729Z,1008.97
2022-11-01T00:25:15.773Z,1008.96
2022-11-01T00:26:15.727Z,1008.91
2022-11-01T00:27:05.651Z,1008.92
2022-11-01T00:28:05.725Z,1008.91
2022-11-01T00:29:05.641Z,1008.88
2022-11-01T00:30:05.646Z,1008.89
2022-11-01T00:31:07.713Z,1008.84
2022-11-01T00:32:05.593Z,1008.85
2022-11-01T00:33:05.572Z,1008.87
2022-11-01T00:34:05.775Z,1008.86
2022-11-01T00:35:05.807Z,1008.79
2022-11-01T00:36:15.567Z,1008.77
2022-11-01T00:37:15.813Z,1008.74
2022-11-01T00:38:16.899Z,1008.75
2022-11-01T00:39:05.544Z,1008.77
2022-11-01T00:40:05.912Z,1008.76
2022-11-01T00:41:05.513Z,1008.70
2022-11-01T00:42:15.574Z,1008.71
2022-11-01T00:43:05.533Z,1008.63
2022-11-01T00:44:05.674Z,1008.57
2022-11-01T00:45:05.460Z,1008.57
2022-11-01T00:46:15.474Z,1008.59
2022-11-01T00:47:05.376Z,1008.59
2022-11-01T00:48:15.406Z,1008.61
2022-11-01T00:49:15.421Z,1008.60
2022-11-01T00:50:05.350Z,1008.62
2022-11-01T00:51:12.886Z,1008.60
2022-11-01T00:52:15.353Z,1008.63
2022-11-01T00:53:05.304Z,1008.58
2022-11-01T00:54:14.024Z,1008.58
2022-11-01T00:55:05.294Z,1008.56
2022-11-01T00:56:05.284Z,1008.53
2022-11-01T00:57:05.308Z,1008.55
2022-11-01T00:58:05.333Z,1008.47
2022-11-01T00:59:05.307Z,1008.45
2022-11-01T01:00:05.283Z,1008.45
2022-11-01T01:01:05.537Z,1008.42
2022-11-01T01:02:05.423Z,1008.44
2022-11-01T01:03:05.244Z,1008.44
2022-11-01T01:04:05.254Z,1008.43
2022-11-01T01:05:05.240Z,1008.47
2022-11-01T01:06:05.231Z,1008.42
2022-11-01T01:07:05.162Z,1008.38
2022-11-01T01:08:05.149Z,1008.35
2022-11-01T01:09:05.167Z,1008.39
2022-11-01T01:10:05.120Z,1008.37
2022-11-01T01:11:05.150Z,1008.41
2022-11-01T01:12:05.099Z,1008.40
2022-11-01T01:13:05.350Z,1008.33
2022-11-01T01:14:05.085Z,1008.34
2022-11-01T01:15:05.043Z,1008.35
2022-11-01T01:16:05.093Z,1008.30
2022-11-01T01:17:05.016Z,1008.28
2022-11-01T01:18:05.187Z,1008.26
2022-11-01T01:19:05.012Z,1008.21
2022-11-01T01:20:04.967Z,1008.18
2022-11-01T01:21:04.979Z,1008.13
2022-11-01T01:22:04.998Z,1008.16
2022-11-01T01:23:05.156Z,1008.23
2022-11-01T01:24:04.950Z,1008.31
2022-11-01T01:25:04.952Z,1008.31
2022-11-01T01:26:04.902Z,1008.29
2022-11-01T01:27:04.877Z,1008.29
2022-11-01T01:28:05.218Z,1008.25
2022-11-01T01:29:04.903Z,1008.27
2022-11-01T01:30:04.859Z,1008.26
2022-11-01T01:31:04.827Z,1008.27
2022-11-01T01:32:04.824Z,1008.27
2022-11-01T01:33:04.891Z,1008.26
2022-11-01T01:34:04.824Z,1008.25
2022-11-01T01:35:04.859Z,1008.23
2022-11-01T01:36:04.777Z,1008.20
2022-11-01T01:37:04.750Z,1008.16
2022-11-01T01:38:05.127Z,1008.15
2022-11-01T01:39:04.759Z,1008.22
2022-11-01T01:40:04.761Z,1008.15
2022-11-01T01:41:04.691Z,1008.17
2022-11-01T01:42:04.676Z,1008.20
2022-11-01T01:43:04.702Z,1008.20
2022-11-01T01:44:04.688Z,1008.20
2022-11-01T01:45:04.693Z,1008.19
2022-11-01T01:46:04.660Z,1008.23
2022-11-01T01:47:04.657Z,1008.22
2022-11-01T01:48:04.837Z,1008.16
2022-11-01T01:49:04.617Z,1008.16
2022-11-01T01:50:04.571Z,1008.17
2022-11-01T01:51:04.585Z,1008.15
2022-11-01T01:52:04.593Z,1008.20
2022-11-01T01:53:04.809Z,1008.18
2022-11-01T01:54:04.613Z,1008.20
2022-11-01T01:55:04.548Z,1008.25
2022-11-01T01:56:04.497Z,1008.26
2022-11-01T01:57:04.585Z,1008.23
2022-11-01T01:58:04.480Z,1008.23
2022-11-01T01:59:04.496Z,1008.29
2022-11-01T02:00:04.468Z,1008.29
2022-11-01T02:01:04.518Z,1008.28
2022-11-01T02:02:04.553Z,1008.23
2022-11-01T02:03:04.569Z,1008.25
2022-11-01T02:08:26.471Z,1008.23
2022-11-01T02:10:26.392Z,1008.24
2022-11-01T02:22:41.520Z,1008.11
2022-11-01T02:23:36.667Z,1008.16
2022-11-01T02:24:36.670Z,1008.11
2022-11-01T02:25:36.628Z,1008.08
2022-11-01T02:26:36.627Z,1008.11
2022-11-01T02:27:36.607Z,1008.16
2022-11-01T02:28:36.608Z,1008.11
2022-11-01T02:29:36.600Z,1008.10
2022-11-01T02:30:36.567Z,1008.10
2022-11-01T02:31:36.580Z,1008.08
2022-11-01T02:32:36.570Z,1008.10
2022-11-01T02:33:36.528Z,1008.09
2022-11-01T02:34:36.540Z,1008.11
2022-11-01T02:35:36.500Z,1008.07
2022-11-01T02:36:36.510Z,1008.08
2022-11-01T02:37:36.479Z,1008.05
2022-11-01T02:38:36.484Z,1008.08
2022-11-01T02:39:36.452Z,1008.07
2022-11-01T02:40:36.452Z,1008.08
2022-11-01T02:41:36.416Z,1008.11
2022-11-01T02:42:36.402Z,1008.12
2022-11-01T02:43:36.403Z,1008.07
2022-11-01T02:44:36.372Z,1008.07
2022-11-01T02:45:36.363Z,1008.05
2022-11-01T02:46:36.364Z,1008.04
2022-11-01T02:47:36.342Z,1008.03
2022-11-01T02:48:36.343Z,1008.02
2022-11-01T02:49:36.313Z,1008.03
2022-11-01T02:50:36.301Z,1008.00
2022-11-01T02:51:36.293Z,1008.02
2022-11-01T02:52:36.297Z,1008.00
2022-11-01T02:53:36.284Z,1008.01
2022-11-01T02:54:36.266Z,1008.00
2022-11-01T02:55:36.360Z,1007.99
2022-11-01T02:56:36.217Z,1008.04
2022-11-01T02:57:36.218Z,1008.09
2022-11-01T02:58:36.194Z,1008.09
2022-11-01T02:59:36.179Z,1008.06
2022-11-01T03:00:36.163Z,1008.07
2022-11-01T03:03:03.274Z,1008.07
2022-11-01T03:09:32.683Z,1008.04
2022-11-01T03:23:42.286Z,1008.20
2022-11-01T03:24:21.152Z,1008.16
2022-11-01T03:25:21.072Z,1008.16
2022-11-01T03:26:21.054Z,1008.17
2022-11-01T03:27:21.055Z,1008.14
2022-11-01T03:28:21.002Z,1008.15
2022-11-01T03:29:20.993Z,1008.18
2022-11-01T03:30:20.992Z,1008.17
2022-11-01T03:31:20.960Z,1008.15
2022-11-01T03:32:20.978Z,1008.18
2022-11-01T03:33:21.026Z,1008.14
2022-11-01T03:34:20.921Z,1008.18
2022-11-01T03:35:20.920Z,1008.17
2022-11-01T03:36:20.919Z,1008.19
2022-11-01T03:37:20.886Z,1008.20
2022-11-01T03:38:20.878Z,1008.19
2022-11-01T03:39:20.937Z,1008.14
2022-11-01T03:40:21.610Z,1008.20
2022-11-01T03:41:20.840Z,1008.17
2022-11-01T03:42:20.827Z,1008.20
2022-11-01T03:43:20.828Z,1008.20
2022-11-01T03:44:20.840Z,1008.19
2022-11-01T03:45:20.910Z,1008.20
2022-11-01T03:46:20.769Z,1008.17
2022-11-01T03:47:20.746Z,1008.19
2022-11-01T03:48:20.731Z,1008.18
2022-11-01T03:49:20.750Z,1008.21
2022-11-01T03:50:20.708Z,1008.21
2022-11-01T03:51:20.721Z,1008.24
2022-11-01T03:52:20.681Z,1008.23
2022-11-01T03:53:20.680Z,1008.25
2022-11-01T03:54:20.717Z,1008.34
2022-11-01T03:55:20.672Z,1008.34
2022-11-01T03:56:20.621Z,1008.31
2022-11-01T03:57:20.645Z,1008.31
2022-11-01T03:58:20.630Z,1008.30
2022-11-01T03:59:20.640Z,1008.33
2022-11-01T04:00:29.322Z,1008.32
2022-11-01T04:01:20.960Z,1008.32
2022-11-01T04:02:20.609Z,1008.33
2022-11-01T04:03:20.540Z,1008.35
2022-11-01T04:04:20.546Z,1008.32
2022-11-01T04:05:20.600Z,1008.39
2022-11-01T04:06:20.568Z,1008.40
2022-11-01T04:07:20.466Z,1008.45
2022-11-01T04:08:20.470Z,1008.45
2022-11-01T04:09:20.476Z,1008.42
2022-11-01T04:10:20.675Z,1008.48
2022-11-01T04:11:20.447Z,1008.49
2022-11-01T04:12:20.470Z,1008.50
2022-11-01T04:13:20.496Z,1008.52
2022-11-01T04:14:20.412Z,1008.55
2022-11-01T04:15:20.361Z,1008.54
2022-11-01T04:16:20.371Z,1008.56
2022-11-01T04:17:20.340Z,1008.52
2022-11-01T04:18:20.390Z,1008.59
2022-11-01T04:19:20.392Z,1008.58
2022-11-01T04:20:20.321Z,1008.55
2022-11-01T04:21:20.293Z,1008.58
2022-11-01T04:22:23.600Z,1008.62
2022-11-01T04:23:20.334Z,1008.61
2022-11-01T04:24:30.425Z,1008.63
2022-11-01T04:25:20.539Z,1008.62
2022-11-01T04:26:20.254Z,1008.66
2022-11-01T04:27:20.244Z,1008.67
2022-11-01T04:28:20.256Z,1008.66
2022-11-01T04:29:20.211Z,1008.74
2022-11-01T04:30:20.282Z,1008.73
2022-11-01T04:31:20.150Z,1008.71
2022-11-01T04:32:20.154Z,1008.75
2022-11-01T04:33:20.161Z,1008.75
2022-11-01T04:34:20.101Z,1008.76
2022-11-01T04:35:20.140Z,1008.76
2022-11-01T04:36:20.131Z,1008.79
2022-11-01T04:37:20.099Z,1008.86
2022-11-01T04:38:20.079Z,1008.86
2022-11-01T04:39:20.073Z,1008.88
2022-11-01T04:40:20.051Z,1008.90
2022-11-01T04:41:20.085Z,1008.93
2022-11-01T04:42:20.096Z,1008.92
2022-11-01T04:43:20.029Z,1008.93
2022-11-01T04:44:20.059Z,1008.87
2022-11-01T04:45:20.235Z,1008.87
2022-11-01T04:46:19.944Z,1008.89
2022-11-01T04:47:19.972Z,1008.91
2022-11-01T04:48:19.982Z,1008.94
2022-11-01T04:49:19.914Z,1008.94
2022-11-01T04:50:19.979Z,1008.94
2022-11-01T04:51:19.923Z,1008.97
2022-11-01T04:52:19.885Z,1009.00
2022-11-01T04:53:19.912Z,1008.98
2022-11-01T04:54:19.872Z,1008.97
2022-11-01T04:55:19.848Z,1009.03
2022-11-01T04:56:19.848Z,1008.98
2022-11-01T04:57:19.825Z,1008.94
2022-11-01T04:58:19.847Z,1008.97
2022-11-01T04:59:19.798Z,1008.92
2022-11-01T05:00:20.043Z,1008.99
2022-11-01T05:01:19.920Z,1008.92
2022-11-01T05:02:19.839Z,1008.98
2022-11-01T05:03:19.762Z,1008.99
2022-11-01T05:04:19.768Z,1009.00
2022-11-01T05:05:19.708Z,1008.99
2022-11-01T05:06:19.725Z,1009.08
2022-11-01T05:07:19.692Z,1009.08
2022-11-01T05:08:19.644Z,1009.12
2022-11-01T05:09:19.670Z,1009.19
2022-11-01T05:10:19.679Z,1009.15
2022-11-01T05:11:19.655Z,1009.19
2022-11-01T05:12:19.723Z,1009.29
2022-11-01T05:13:19.613Z,1009.30
2022-11-01T05:14:19.611Z,1009.31
2022-11-01T05:15:19.553Z,1009.33
2022-11-01T05:16:20.637Z,1009.32
2022-11-01T05:17:19.554Z,1009.33
2022-11-01T05:18:19.542Z,1009.36
2022-11-01T05:19:19.522Z,1009.37
2022-11-01T05:20:19.560Z,1009.51
2022-11-01T05:21:19.480Z,1009.42
2022-11-01T05:22:19.485Z,1009.49
2022-11-01T05:23:19.523Z,1009.50
2022-11-01T05:24:19.437Z,1009.51
2022-11-01T05:25:19.444Z,1009.55
2022-11-01T05:26:19.421Z,1009.55
2022-11-01T05:27:19.445Z,1009.59
2022-11-01T05:28:19.396Z,1009.66
2022-11-01T05:29:24.755Z,1009.65
2022-11-01T05:30:20.400Z,1009.68
2022-11-01T05:31:19.367Z,1009.63
2022-11-01T05:32:19.356Z,1009.67
2022-11-01T05:33:19.356Z,1009.67
2022-11-01T05:34:19.357Z,1009.73
2022-11-01T05:35:19.438Z,1009.74
2022-11-01T05:36:19.290Z,1009.72
2022-11-01T05:37:19.299Z,1009.76
2022-11-01T05:38:19.278Z,1009.68
2022-11-01T05:39:19.289Z,1009.67
2022-11-01T05:40:19.239Z,1009.74
2022-11-01T05:41:19.241Z,1009.76
2022-11-01T05:42:19.295Z,1009.91
2022-11-01T05:43:19.272Z,1009.87
2022-11-01T05:44:19.240Z,1009.82
2022-11-01T05:45:19.183Z,1009.90
2022-11-01T05:46:19.149Z,1009.91
2022-11-01T05:47:19.139Z,1009.94
2022-11-01T05:48:19.174Z,1009.96
2022-11-01T05:49:19.188Z,1009.96
2022-11-01T05:50:19.123Z,1009.98
2022-11-01T05:51:19.115Z,1010.00
2022-11-01T05:52:19.120Z,1009.99
2022-11-01T05:53:19.082Z,1010.06
2022-11-01T05:54:19.068Z,1010.10
2022-11-01T05:55:19.065Z,1010.07
2022-11-01T05:56:19.036Z,1010.16
2022-11-01T05:57:19.048Z,1010.12
2022-11-01T05:58:19.165Z,1010.26
2022-11-01T05:59:19.057Z,1010.21
2022-11-01T06:00:18.992Z,1010.24
2022-11-01T06:01:19.063Z,1010.22
2022-11-01T06:02:19.019Z,1010.35
2022-11-01T06:03:18.927Z,1010.27
2022-11-01T06:04:18.920Z,1010.33
2022-11-01T06:05:18.978Z,1010.28
2022-11-01T06:06:18.868Z,1010.30
2022-11-01T06:07:18.878Z,1010.29
2022-11-01T06:08:18.880Z,1010.39
2022-11-01T06:09:18.899Z,1010.66
2022-11-01T06:10:18.880Z,1010.57
2022-11-01T06:11:18.868Z,1010.59
2022-11-01T06:12:19.017Z,1010.61
2022-11-01T06:13:19.086Z,1010.60
2022-11-01T06:14:18.791Z,1010.67
2022-11-01T06:15:18.798Z,1010.70
2022-11-01T06:16:18.758Z,1010.61
2022-11-01T06:17:18.745Z,1010.65
2022-11-01T06:18:18.763Z,1010.60
2022-11-01T06:19:18.712Z,1010.69
2022-11-01T06:20:18.716Z,1010.74
2022-11-01T06:21:18.698Z,1010.80
2022-11-01T06:22:18.692Z,1010.80
2022-11-01T06:23:18.677Z,1010.82
2022-11-01T06:24:18.673Z,1010.85
2022-11-01T06:25:18.636Z,1010.87
2022-11-01T06:26:18.696Z,1010.90
2022-11-01T06:27:18.669Z,1010.95
2022-11-01T06:28:18.615Z,1011.00
2022-11-01T06:29:18.601Z,1010.96
2022-11-01T06:30:18.809Z,1010.99
2022-11-01T06:31:18.701Z,1011.05
2022-11-01T06:32:18.732Z,1011.02
2022-11-01T06:33:18.682Z,1011.10
2022-11-01T06:34:18.575Z,1011.11
2022-11-01T06:35:18.618Z,1011.08
2022-11-01T06:36:18.557Z,1011.11
2022-11-01T06:37:18.479Z,1011.15
2022-11-01T06:38:18.475Z,1011.14
2022-11-01T06:39:18.437Z,1011.16
2022-11-01T06:40:18.481Z,1011.21
2022-11-01T06:41:18.416Z,1011.25
2022-11-01T06:42:18.418Z,1011.19
2022-11-01T06:43:18.433Z,1011.29
2022-11-01T06:44:18.376Z,1011.32
2022-11-01T06:45:18.382Z,1011.37
2022-11-01T06:46:18.339Z,1011.30
2022-11-01T06:47:18.325Z,1011.36
2022-11-01T06:48:18.361Z,1011.45
2022-11-01T06:49:19.322Z,1011.41
2022-11-01T06:50:18.312Z,1011.42
2022-11-01T06:51:18.311Z,1011.58
2022-11-01T06:52:18.344Z,1011.47
2022-11-01T06:53:18.244Z,1011.52
2022-11-01T06:54:18.304Z,1011.59
2022-11-01T06:55:18.326Z,1011.65
2022-11-01T06:56:18.236Z,1011.68
2022-11-01T06:57:18.239Z,1011.71
2022-11-01T06:58:18.244Z,1011.67
2022-11-01T06:59:18.223Z,1011.74
2022-11-01T07:00:18.154Z,1011.79
2022-11-01T07:01:18.220Z,1011.74
2022-11-01T07:02:19.802Z,1011.81
2022-11-01T07:03:18.234Z,1011.80
2022-11-01T07:04:18.137Z,1011.87
2022-11-01T07:05:18.105Z,1011.84
2022-11-01T07:06:18.088Z,1011.85
2022-11-01T07:07:18.089Z,1011.90
2022-11-01T07:08:18.097Z,1011.98
2022-11-01T07:09:18.096Z,1011.94
2022-11-01T07:10:18.066Z,1012.06
2022-11-01T07:11:18.047Z,1012.04
2022-11-01T07:12:17.986Z,1012.15
2022-11-01T07:13:18.259Z,1012.15
2022-11-01T07:14:17.979Z,1012.14
2022-11-01T07:15:17.995Z,1012.27
2022-11-01T07:16:17.975Z,1012.28
2022-11-01T07:17:17.963Z,1012.27
2022-11-01T07:18:18.136Z,1012.36
2022-11-01T07:19:17.899Z,1012.33
2022-11-01T07:20:17.930Z,1012.47
2022-11-01T07:21:17.935Z,1012.38
2022-11-01T07:22:17.889Z,1012.37
2022-11-01T07:23:17.940Z,1012.44
2022-11-01T07:24:17.899Z,1012.41
2022-11-01T07:25:17.847Z,1012.43
2022-11-01T07:26:17.909Z,1012.44
2022-11-01T07:27:20.460Z,1012.53
2022-11-01T07:28:17.802Z,1012.36
2022-11-01T07:29:17.789Z,1012.43
2022-11-01T07:30:17.751Z,1012.40
2022-11-01T07:31:17.874Z,1012.41
2022-11-01T07:32:17.771Z,1012.43
2022-11-01T07:33:17.765Z,1012.50
2022-11-01T07:34:17.717Z,1012.54
2022-11-01T07:35:17.716Z,1012.51
2022-11-01T07:36:17.708Z,1012.52
2022-11-01T07:37:17.729Z,1012.73
2022-11-01T07:38:17.986Z,1012.61
2022-11-01T07:39:17.629Z,1012.68
2022-11-01T07:40:17.642Z,1012.73
2022-11-01T07:41:17.639Z,1012.71
2022-11-01T07:42:17.668Z,1012.69
2022-11-01T07:43:17.638Z,1012.74
2022-11-01T07:44:17.576Z,1012.70
2022-11-01T07:45:17.577Z,1012.74
2022-11-01T07:46:17.566Z,1012.72
2022-11-01T07:47:17.547Z,1012.83
2022-11-01T07:48:17.549Z,1012.77
2022-11-01T07:49:17.528Z,1012.76
2022-11-01T07:50:17.509Z,1012.82
2022-11-01T07:51:17.498Z,1012.81
2022-11-01T07:52:17.481Z,1012.77
2022-11-01T07:53:17.459Z,1012.76
2022-11-01T07:54:17.451Z,1012.87
2022-11-01T07:55:17.451Z,1012.80
2022-11-01T07:56:17.402Z,1012.90
2022-11-01T07:57:17.414Z,1012.82
2022-11-01T07:58:17.383Z,1012.85
2022-11-01T07:59:17.397Z,1012.90
2022-11-01T08:00:17.454Z,1012.90
2022-11-01T08:01:17.511Z,1012.92
2022-11-01T08:02:17.497Z,1012.90
2022-11-01T08:03:17.342Z,1013.06
2022-11-01T08:04:17.355Z,1012.86
2022-11-01T08:05:17.355Z,1012.92
2022-11-01T08:06:17.367Z,1012.81
2022-11-01T08:07:17.400Z,1012.88
2022-11-01T08:08:17.247Z,1013.02
2022-11-01T08:09:17.234Z,1013.00
2022-11-01T08:10:17.264Z,1013.05
2022-11-01T08:11:17.245Z,1013.06
2022-11-01T08:12:17.217Z,1012.97
2022-11-01T08:13:17.177Z,1013.00
2022-11-01T08:14:17.179Z,1013.00
2022-11-01T08:15:17.296Z,1013.01
2022-11-01T08:16:17.189Z,1012.98
2022-11-01T08:17:17.169Z,1013.11
2022-11-01T08:18:17.173Z,1013.06
2022-11-01T08:19:17.149Z,1013.09
2022-11-01T08:20:17.134Z,1013.09
2022-11-01T08:21:17.176Z,1013.13
2022-11-01T08:22:17.132Z,1013.14
2022-11-01T08:23:17.079Z,1013.16
2022-11-01T08:24:17.074Z,1013.24
2022-11-01T08:25:17.027Z,1013.21
2022-11-01T08:26:16.999Z,1013.33
2022-11-01T08:27:17.095Z,1013.22
2022-11-01T08:28:17.063Z,1013.27
2022-11-01T08:29:16.982Z,1013.33
2022-11-01T08:30:16.982Z,1013.30
2022-11-01T08:31:16.979Z,1013.27
2022-11-01T08:32:16.962Z,1013.29
2022-11-01T08:33:16.912Z,1013.38
2022-11-01T08:34:17.308Z,1013.37
2022-11-01T08:35:16.875Z,1013.38
2022-11-01T08:36:16.887Z,1013.45
2022-11-01T08:37:16.960Z,1013.52
2022-11-01T08:38:16.870Z,1013.51
2022-11-01T08:39:16.883Z,1013.36
2022-11-01T08:40:16.885Z,1013.52
2022-11-01T08:41:16.953Z,1013.49
2022-11-01T08:42:16.850Z,1013.50
2022-11-01T08:43:16.824Z,1013.47
2022-11-01T08:44:16.820Z,1013.47
2022-11-01T08:45:16.892Z,1013.51
2022-11-01T08:46:16.744Z,1013.51
2022-11-01T08:47:16.736Z,1013.58
2022-11-01T08:48:16.709Z,1013.53
2022-11-01T08:49:16.764Z,1013.61
2022-11-01T08:50:16.747Z,1013.70
2022-11-01T08:51:16.707Z,1013.57
2022-11-01T08:52:16.708Z,1013.56
2022-11-01T08:53:16.927Z,1013.58
2022-11-01T08:54:16.658Z,1013.61
2022-11-01T08:55:16.648Z,1013.72
2022-11-01T08:56:16.658Z,1013.60
2022-11-01T08:57:16.608Z,1013.71
2022-11-01T08:58:16.603Z,1013.71
2022-11-01T08:59:16.815Z,1013.66
2022-11-01T09:00:16.578Z,1013.66
2022-11-01T09:01:16.732Z,1013.63
2022-11-01T09:02:16.586Z,1013.72
2022-11-01T09:03:16.564Z,1013.74
2022-11-01T09:04:16.529Z,1013.74
2022-11-01T09:05:16.534Z,1013.73
2022-11-01T09:06:16.509Z,1013.79
2022-11-01T09:07:16.450Z,1013.76
2022-11-01T09:08:16.461Z,1013.88
2022-11-01T09:09:16.502Z,1013.75
2022-11-01T09:10:16.421Z,1013.84
2022-11-01T09:11:16.422Z,1013.79
2022-11-01T09:12:19.398Z,1013.86
2022-11-01T09:13:17.404Z,1013.79
2022-11-01T09:14:16.387Z,1013.81
2022-11-01T09:15:16.386Z,1013.88
2022-11-01T09:16:16.355Z,1013.79
2022-11-01T09:17:16.310Z,1013.82
2022-11-01T09:18:16.303Z,1013.86
2022-11-01T09:19:16.360Z,1013.78
2022-11-01T09:20:16.337Z,1013.87
2022-11-01T09:21:16.301Z,1013.84
2022-11-01T09:22:16.316Z,1013.78
2022-11-01T09:23:16.266Z,1013.85
2022-11-01T09:24:16.296Z,1013.81
2022-11-01T09:25:16.247Z,1013.81
2022-11-01T09:26:16.307Z,1013.84
2022-11-01T09:27:16.215Z,1013.87
2022-11-01T09:28:16.234Z,1013.74
2022-11-01T09:29:16.169Z,1013.96
2022-11-01T09:30:16.197Z,1013.92
2022-11-01T09:31:20.876Z,1013.79
2022-11-01T09:32:17.178Z,1013.99
2022-11-01T09:33:16.139Z,1013.88
2022-11-01T09:34:16.149Z,1013.90
2022-11-01T09:35:16.128Z,1014.05
2022-11-01T09:36:16.103Z,1013.96
2022-11-01T09:37:16.129Z,1013.92
2022-11-01T09:38:16.090Z,1013.96
2022-11-01T09:39:16.032Z,1013.97
2022-11-01T09:40:16.063Z,1013.95
2022-11-01T09:41:16.072Z,1014.02
2022-11-01T09:42:16.024Z,1014.02
2022-11-01T09:43:16.015Z,1014.02
2022-11-01T09:44:15.980Z,1014.01
2022-11-01T09:45:15.976Z,1014.02
2022-11-01T09:46:16.013Z,1014.03
2022-11-01T09:47:15.986Z,1014.01
2022-11-01T09:48:15.941Z,1014.05
2022-11-01T09:49:15.897Z,1014.04
2022-11-01T09:50:15.924Z,1014.09
2022-11-01T09:51:16.027Z,1014.09
2022-11-01T09:52:15.924Z,1014.07
2022-11-01T09:53:15.833Z,1014.08
2022-11-01T09:54:15.865Z,1014.16
2022-11-01T09:55:15.841Z,1014.09
2022-11-01T09:56:15.818Z,1014.08
2022-11-01T09:57:15.816Z,1014.05
2022-11-01T09:58:15.753Z,1014.20
2022-11-01T09:59:15.788Z,1014.16
2022-11-01T10:00:23.310Z,1014.09
2022-11-01T10:01:15.776Z,1014.16
2022-11-01T10:02:15.773Z,1014.18
2022-11-01T10:03:15.731Z,1014.17
2022-11-01T10:04:15.682Z,1014.22
2022-11-01T10:05:18.680Z,1014.16
2022-11-01T10:06:15.672Z,1014.20
2022-11-01T10:07:15.654Z,1014.22
2022-11-01T10:08:15.698Z,1014.20
2022-11-01T10:09:15.613Z,1014.25
2022-11-01T10:10:15.603Z,1014.21
2022-11-01T10:11:15.587Z,1014.29
2022-11-01T10:12:15.600Z,1014.23
2022-11-01T10:13:15.565Z,1014.17
2022-11-01T10:14:15.586Z,1014.13
2022-11-01T10:15:15.555Z,1014.20
2022-11-01T10:16:15.536Z,1014.17
2022-11-01T10:17:15.535Z,1014.22
2022-11-01T10:18:15.511Z,1014.19
2022-11-01T10:19:15.511Z,1014.19
2022-11-01T10:20:15.480Z,1014.17
2022-11-01T10:21:15.483Z,1014.13
2022-11-01T10:22:15.453Z,1014.12
2022-11-01T10:23:15.457Z,1014.07
2022-11-01T10:24:15.417Z,1014.02
2022-11-01T10:25:15.449Z,1014.01
2022-11-01T10:26:15.396Z,1014.04
2022-11-01T10:27:15.391Z,1014.02
2022-11-01T10:28:15.378Z,1014.03
2022-11-01T10:29:15.409Z,1014.05
2022-11-01T10:30:15.340Z,1014.10
2022-11-01T10:31:15.343Z,1014.10
2022-11-01T10:32:15.350Z,1014.14
2022-11-01T10:33:24.272Z,1014.08
2022-11-01T10:34:15.289Z,1014.16
2022-11-01T10:35:15.326Z,1014.10
2022-11-01T10:36:15.272Z,1014.09
2022-11-01T10:37:15.262Z,1014.09
2022-11-01T10:39:53.566Z,1014.10
2022-11-01T10:40:16.225Z,1014.15
2022-11-01T10:41:15.222Z,1014.15
2022-11-01T10:42:15.205Z,1014.18
2022-11-01T10:43:15.194Z,1014.15
2022-11-01T10:44:15.186Z,1014.15
2022-11-01T10:45:15.156Z,1014.14
2022-11-01T10:46:15.140Z,1014.19
2022-11-01T10:47:15.139Z,1014.23
2022-11-01T10:48:15.119Z,1014.19
2022-11-01T10:49:15.131Z,1014.27
2022-11-01T10:50:15.126Z,1014.21
2022-11-01T10:51:15.084Z,1014.25
2022-11-01T10:52:15.070Z,1014.17
2022-11-01T10:54:15.029Z,1014.22
2022-11-01T10:55:15.032Z,1014.34
2022-11-01T10:56:17.463Z,1014.36
2022-11-01T10:57:15.003Z,1014.29
2022-11-01T10:58:14.980Z,1014.26
2022-11-01T10:59:14.969Z,1014.32
2022-11-01T11:00:14.983Z,1014.35
2022-11-01T11:01:15.085Z,1014.32
2022-11-01T11:02:15.102Z,1014.32
2022-11-01T11:03:14.934Z,1014.37
2022-11-01T11:04:14.937Z,1014.33
2022-11-01T11:05:14.888Z,1014.36
2022-11-01T11:06:14.899Z,1014.42
2022-11-01T11:07:18.535Z,1014.35
2022-11-01T11:08:15.869Z,1014.29
2022-11-01T11:09:14.845Z,1014.27
2022-11-01T11:10:16.229Z,1014.31
2022-11-01T11:11:14.852Z,1014.29
2022-11-01T11:12:14.823Z,1014.31
2022-11-01T11:13:14.783Z,1014.35
2022-11-01T11:14:14.778Z,1014.34
2022-11-01T11:15:14.780Z,1014.30
2022-11-01T11:16:14.736Z,1014.37
2022-11-01T11:17:14.719Z,1014.38
2022-11-01T11:18:14.758Z,1014.33
2022-11-01T11:19:14.704Z,1014.36
2022-11-01T11:20:14.693Z,1014.35
2022-11-01T11:21:14.693Z,1014.40
2022-11-01T11:22:14.659Z,1014.40
2022-11-01T11:23:14.680Z,1014.40
2022-11-01T11:24:14.702Z,1014.38
2022-11-01T11:25:24.663Z,1014.45
2022-11-01T11:26:14.586Z,1014.35
2022-11-01T11:27:14.598Z,1014.43
2022-11-01T11:28:14.560Z,1014.39
2022-11-01T11:29:14.596Z,1014.37
2022-11-01T11:30:14.537Z,1014.38
2022-11-01T11:31:14.526Z,1014.38
2022-11-01T11:32:14.546Z,1014.41
2022-11-01T11:33:14.489Z,1014.37
2022-11-01T11:34:14.513Z,1014.42
2022-11-01T11:35:14.540Z,1014.41
2022-11-01T11:36:14.488Z,1014.40
2022-11-01T11:37:14.445Z,1014.36
2022-11-01T11:38:14.439Z,1014.39
2022-11-01T11:39:14.420Z,1014.49
2022-11-01T11:40:14.416Z,1014.48
2022-11-01T11:41:14.391Z,1014.51
2022-11-01T11:42:14.390Z,1014.48
2022-11-01T11:43:14.414Z,1014.51
2022-11-01T11:44:14.344Z,1014.40
2022-11-01T11:45:14.348Z,1014.50
2022-11-01T11:46:14.342Z,1014.72
2022-11-01T11:47:14.306Z,1014.64
2022-11-01T11:48:14.328Z,1014.60
2022-11-01T11:49:14.292Z,1014.62
2022-11-01T11:50:14.284Z,1014.63
2022-11-01T11:51:14.284Z,1014.61
2022-11-01T11:52:14.263Z,1014.56
2022-11-01T11:53:14.235Z,1014.50
2022-11-01T11:54:14.216Z,1014.67
2022-11-01T11:55:14.249Z,1014.60
2022-11-01T11:56:14.233Z,1014.57
2022-11-01T11:57:14.193Z,1014.58
2022-11-01T11:58:14.203Z,1014.53
2022-11-01T11:59:14.154Z,1014.54
2022-11-01T12:00:14.125Z,1014.55
2022-11-01T12:01:14.190Z,1014.40
2022-11-01T12:02:15.855Z,1014.47
2022-11-01T12:03:14.113Z,1014.50
2022-11-01T12:04:14.072Z,1014.53
2022-11-01T12:05:14.116Z,1014.52
2022-11-01T12:06:14.067Z,1014.58
2022-11-01T12:07:14.064Z,1014.53
2022-11-01T12:08:14.019Z,1014.58
2022-11-01T12:09:14.020Z,1014.65
2022-11-01T12:10:14.004Z,1014.44
2022-11-01T12:11:14.014Z,1014.65
2022-11-01T12:12:13.985Z,1014.54
2022-11-01T12:13:13.971Z,1014.56
2022-11-01T12:14:13.962Z,1014.61
2022-11-01T12:15:13.990Z,1014.62
2022-11-01T12:16:14.020Z,1014.52
2022-11-01T12:17:13.921Z,1014.56
2022-11-01T12:18:15.859Z,1014.58
2022-11-01T12:19:13.891Z,1014.53
2022-11-01T12:20:13.967Z,1014.53
2022-11-01T12:21:13.876Z,1014.51
2022-11-01T12:22:13.894Z,1014.53
2022-11-01T12:23:13.822Z,1014.61
2022-11-01T12:24:13.838Z,1014.53
2022-11-01T12:25:13.801Z,1014.60
2022-11-01T12:26:14.047Z,1014.58
2022-11-01T12:27:13.786Z,1014.49
2022-11-01T12:28:13.773Z,1014.46
2022-11-01T12:29:13.793Z,1014.39
2022-11-01T12:30:13.785Z,1014.46
2022-11-01T12:31:13.747Z,1014.56
2022-11-01T12:32:13.703Z,1014.50
2022-11-01T12:33:13.763Z,1014.48
2022-11-01T12:34:13.718Z,1014.53
2022-11-01T12:35:13.731Z,1014.48
2022-11-01T12:36:13.649Z,1014.52
2022-11-01T12:37:13.681Z,1014.59
2022-11-01T12:38:13.649Z,1014.57
2022-11-01T12:39:13.619Z,1014.49
2022-11-01T12:40:13.742Z,1014.46
2022-11-01T12:41:13.615Z,1014.48
2022-11-01T12:42:13.563Z,1014.51
2022-11-01T12:43:13.580Z,1014.49
2022-11-01T12:44:13.553Z,1014.45